createdAt,value
2018-10-09T00:00:07.574Z,11.40
2018-10-09T00:03:19.547Z,11.40
2018-10-09T00:06:31.928Z,11.40
2018-10-09T00:09:44.073Z,11.40
2018-10-09T00:12:55.626Z,11.40
2018-10-09T00:16:07.346Z,11.40
2018-10-09T00:19:18.686Z,11.30
2018-10-09T00:22:29.958Z,11.30
2018-10-09T00:25:41.184Z,11.30
2018-10-09T00:28:53.186Z,11.30
2018-10-09T00:32:05.225Z,11.30
2018-10-09T00:35:16.269Z,11.20
2018-10-09T00:38:27.373Z,11.30
2018-10-09T00:41:46.202Z,11.20
2018-10-09T00:44:57.582Z,11.20
2018-10-09T00:48:10.187Z,11.20
2018-10-09T00:54:44.026Z,11.10
2018-10-09T00:57:55.569Z,11.10
2018-10-09T01:01:07.051Z,11.10
2018-10-09T01:04:19.084Z,11.10
2018-10-09T01:07:31.637Z,11.10
2018-10-09T01:10:43.315Z,11.00
2018-10-09T01:13:54.773Z,11.10
2018-10-09T01:17:06.949Z,11.10
2018-10-09T01:20:31.646Z,11.10
2018-10-09T01:23:43.329Z,11.10
2018-10-09T01:26:55.317Z,11.10
2018-10-09T01:30:06.702Z,11.10
2018-10-09T01:33:18.129Z,11.10
2018-10-09T01:36:29.345Z,11.10
2018-10-09T01:39:41.245Z,11.10
2018-10-09T01:42:52.746Z,11.10
2018-10-09T01:46:04.785Z,11.00
2018-10-09T01:49:16.622Z,10.90
2018-10-09T01:52:28.553Z,10.90
2018-10-09T01:55:40.015Z,10.90
2018-10-09T01:58:52.003Z,10.80
2018-10-09T02:02:04.240Z,10.80
2018-10-09T02:05:15.896Z,10.70
2018-10-09T02:08:27.661Z,10.60
2018-10-09T02:11:39.442Z,10.60
2018-10-09T02:14:50.549Z,10.50
2018-10-09T02:18:02.061Z,10.50
2018-10-09T02:21:13.681Z,10.50
2018-10-09T02:24:25.611Z,10.40
2018-10-09T02:27:37.334Z,10.40
2018-10-09T02:30:48.565Z,10.30
2018-10-09T02:34:00.196Z,10.30
2018-10-09T02:37:11.242Z,10.30
2018-10-09T02:40:23.190Z,10.30
2018-10-09T02:43:34.742Z,10.40
2018-10-09T02:46:46.132Z,10.30
2018-10-09T02:49:58.040Z,10.20
2018-10-09T02:53:09.746Z,10.20
2018-10-09T02:56:21.097Z,10.10
2018-10-09T02:59:32.317Z,10.20
2018-10-09T03:02:43.709Z,10.20
2018-10-09T03:05:55.143Z,10.20
2018-10-09T03:09:08.870Z,10.10
2018-10-09T03:12:20.555Z,10.10
2018-10-09T03:15:31.611Z,10.10
2018-10-09T03:18:43.351Z,10.10
2018-10-09T03:21:54.382Z,10.10
2018-10-09T03:25:05.621Z,10.10
2018-10-09T03:28:17.673Z,10.10
2018-10-09T03:31:29.015Z,10.10
2018-10-09T03:34:40.501Z,10.10
2018-10-09T03:37:52.195Z,10.10
2018-10-09T03:41:04.532Z,10.20
2018-10-09T03:44:16.241Z,10.20
2018-10-09T03:47:28.177Z,10.20
2018-10-09T03:50:39.586Z,10.20
2018-10-09T03:53:51.568Z,10.20
2018-10-09T03:57:03.826Z,10.20
2018-10-09T04:00:15.626Z,10.20
2018-10-09T04:03:26.837Z,10.20
2018-10-09T04:06:38.100Z,10.20
2018-10-09T04:09:50.007Z,10.10
2018-10-09T04:13:01.925Z,10.20
2018-10-09T04:16:13.369Z,10.20
2018-10-09T04:19:25.053Z,10.10
2018-10-09T04:22:36.379Z,10.10
2018-10-09T04:25:47.625Z,10.00
2018-10-09T04:28:58.764Z,10.00
2018-10-09T04:32:09.822Z,10.00
2018-10-09T04:35:21.305Z,10.00
2018-10-09T04:38:32.984Z,10.00
2018-10-09T04:41:44.811Z,10.00
2018-10-09T04:44:56.591Z,10.00
2018-10-09T04:48:08.473Z,10.00
2018-10-09T04:51:20.257Z,10.00
2018-10-09T04:54:32.143Z,10.00
2018-10-09T04:57:44.109Z,10.00
2018-10-09T05:00:55.273Z,10.00
2018-10-09T05:04:07.182Z,10.00
2018-10-09T05:07:18.726Z,10.00
2018-10-09T05:10:30.038Z,10.00
2018-10-09T05:13:41.837Z,10.00
2018-10-09T05:16:53.145Z,10.00
2018-10-09T05:20:06.126Z,10.00
2018-10-09T05:23:17.944Z,9.90
2018-10-09T05:26:29.138Z,9.90
2018-10-09T05:29:40.224Z,9.90
2018-10-09T05:32:51.803Z,9.90
2018-10-09T05:36:04.017Z,9.90
2018-10-09T05:39:15.546Z,9.90
2018-10-09T05:42:27.559Z,10.00
2018-10-09T05:45:38.785Z,10.00
2018-10-09T05:48:50.140Z,10.00
2018-10-09T05:52:02.009Z,10.00
2018-10-09T05:55:13.869Z,10.10
2018-10-09T05:58:25.130Z,10.10
2018-10-09T06:01:36.190Z,10.10
2018-10-09T06:04:47.478Z,10.10
2018-10-09T06:07:58.517Z,10.20
2018-10-09T06:11:10.239Z,10.20
2018-10-09T06:14:21.505Z,10.30
2018-10-09T06:17:32.520Z,10.30
2018-10-09T06:20:43.560Z,10.40
2018-10-09T06:23:54.587Z,10.50
2018-10-09T06:27:06.154Z,10.50
2018-10-09T06:30:17.786Z,10.50
2018-10-09T06:33:29.464Z,10.60
2018-10-09T06:36:40.965Z,10.70
2018-10-09T06:39:52.736Z,10.80
2018-10-09T06:43:04.670Z,10.80
2018-10-09T06:46:19.541Z,10.90
2018-10-09T06:49:30.823Z,11.10
2018-10-09T06:52:42.015Z,11.20
2018-10-09T06:55:54.000Z,11.30
2018-10-09T06:59:06.296Z,11.50
2018-10-09T07:02:19.001Z,11.60
2018-10-09T07:05:30.888Z,11.70
2018-10-09T07:08:41.946Z,11.80
2018-10-09T07:11:53.496Z,11.80
2018-10-09T07:15:04.724Z,11.90
2018-10-09T07:18:17.396Z,12.00
2018-10-09T07:21:28.711Z,12.10
2018-10-09T07:24:40.402Z,12.20
2018-10-09T07:27:52.287Z,12.30
2018-10-09T07:31:04.002Z,12.50
2018-10-09T07:34:15.100Z,12.60
2018-10-09T07:37:26.859Z,12.70
2018-10-09T07:40:38.741Z,12.80
2018-10-09T07:43:49.971Z,12.90
2018-10-09T07:47:01.710Z,12.90
2018-10-09T07:50:13.252Z,13.00
2018-10-09T07:53:26.231Z,13.00
2018-10-09T07:56:38.267Z,13.10
2018-10-09T07:59:49.850Z,13.10
2018-10-09T08:03:01.764Z,13.10
2018-10-09T08:06:13.066Z,13.10
2018-10-09T08:09:24.933Z,13.10
2018-10-09T08:12:36.261Z,13.20
2018-10-09T08:15:48.188Z,13.30
2018-10-09T08:18:59.304Z,13.40
2018-10-09T08:22:10.792Z,13.60
2018-10-09T08:25:22.441Z,13.80
2018-10-09T08:28:36.022Z,14.00
2018-10-09T08:31:47.160Z,14.20
2018-10-09T08:34:59.088Z,14.40
2018-10-09T08:38:11.336Z,14.60
2018-10-09T08:41:22.552Z,14.70
2018-10-09T08:44:34.029Z,14.90
2018-10-09T08:47:45.393Z,15.00
2018-10-09T08:50:57.182Z,15.10
2018-10-09T08:54:08.448Z,15.20
2018-10-09T08:57:20.205Z,15.20
2018-10-09T09:00:32.623Z,15.30
2018-10-09T09:03:44.450Z,15.50
2018-10-09T09:06:55.601Z,15.60
2018-10-09T09:10:07.546Z,15.60
2018-10-09T09:13:19.465Z,15.80
2018-10-09T09:16:31.467Z,15.90
2018-10-09T09:19:42.924Z,16.10
2018-10-09T09:22:54.565Z,16.30
2018-10-09T09:26:06.557Z,16.40
2018-10-09T09:29:17.800Z,16.60
2018-10-09T09:32:29.270Z,16.60
2018-10-09T09:35:40.217Z,16.80
2018-10-09T09:38:51.818Z,17.00
2018-10-09T09:42:03.105Z,17.10
2018-10-09T09:45:14.883Z,17.20
2018-10-09T09:48:26.348Z,17.30
2018-10-09T09:51:38.094Z,17.40
2018-10-09T09:54:49.112Z,17.50
2018-10-09T09:58:00.463Z,17.50
2018-10-09T10:01:12.777Z,17.70
2018-10-09T10:04:24.845Z,17.80
2018-10-09T10:07:36.424Z,17.90
2018-10-09T10:10:47.979Z,17.90
2018-10-09T10:14:00.109Z,18.00
2018-10-09T10:17:11.193Z,18.00
2018-10-09T10:20:22.785Z,18.10
2018-10-09T10:23:34.334Z,18.20
2018-10-09T10:26:46.306Z,18.20
2018-10-09T10:29:58.225Z,18.30
2018-10-09T10:33:10.280Z,18.40
2018-10-09T10:36:21.732Z,18.50
2018-10-09T10:39:33.893Z,18.40
2018-10-09T10:42:45.198Z,18.50
2018-10-09T10:45:56.411Z,18.50
2018-10-09T10:49:10.960Z,18.50
2018-10-09T10:52:22.891Z,18.60
2018-10-09T10:55:34.550Z,18.60
2018-10-09T10:58:45.572Z,18.70
2018-10-09T11:01:56.941Z,18.70
2018-10-09T11:05:08.304Z,18.80
2018-10-09T11:08:20.128Z,18.80
2018-10-09T11:11:31.709Z,18.90
2018-10-09T11:14:43.788Z,19.00
2018-10-09T11:17:55.151Z,19.10
2018-10-09T11:21:07.209Z,19.20
2018-10-09T11:24:18.821Z,19.20
2018-10-09T11:27:30.595Z,19.30
2018-10-09T11:30:42.098Z,19.40
2018-10-09T11:33:53.368Z,19.50
2018-10-09T11:37:04.663Z,19.50
2018-10-09T11:40:16.713Z,19.60
2018-10-09T11:43:28.596Z,19.70
2018-10-09T11:46:39.907Z,19.80
2018-10-09T11:49:51.371Z,19.80
2018-10-09T11:53:03.140Z,20.00
2018-10-09T11:56:14.490Z,20.00
2018-10-09T11:59:25.618Z,20.00
2018-10-09T12:02:36.999Z,20.00
2018-10-09T12:05:48.352Z,20.10
2018-10-09T12:09:00.215Z,20.10
2018-10-09T12:12:11.612Z,20.10
2018-10-09T12:15:22.736Z,20.20
2018-10-09T12:18:34.971Z,20.30
2018-10-09T12:21:46.986Z,20.30
2018-10-09T12:24:58.240Z,20.30
2018-10-09T12:28:09.703Z,20.40
2018-10-09T12:31:21.807Z,20.40
2018-10-09T12:34:33.218Z,20.50
2018-10-09T12:37:46.962Z,20.50
2018-10-09T12:40:59.017Z,20.50
2018-10-09T12:44:10.868Z,20.50
2018-10-09T12:47:23.260Z,20.60
2018-10-09T12:50:35.091Z,20.60
2018-10-09T12:53:46.206Z,20.60
2018-10-09T12:56:57.543Z,20.50
2018-10-09T13:00:09.466Z,20.60
2018-10-09T13:03:20.731Z,20.70
2018-10-09T13:06:32.191Z,20.80
2018-10-09T13:09:43.443Z,20.90
2018-10-09T13:12:54.550Z,20.90
2018-10-09T13:16:05.830Z,20.80
2018-10-09T13:19:17.406Z,20.90
2018-10-09T13:22:30.092Z,21.00
2018-10-09T13:25:41.170Z,20.90
2018-10-09T13:28:52.439Z,20.90
2018-10-09T13:32:04.078Z,21.00
2018-10-09T13:35:15.191Z,20.90
2018-10-09T13:38:26.365Z,20.90
2018-10-09T13:41:38.196Z,20.90
2018-10-09T13:44:49.802Z,20.80
2018-10-09T13:48:01.242Z,20.90
2018-10-09T13:51:12.346Z,20.90
2018-10-09T13:54:23.774Z,20.90
2018-10-09T13:57:36.125Z,21.00
2018-10-09T14:00:46.980Z,21.00
2018-10-09T14:03:58.509Z,21.30
2018-10-09T14:07:10.429Z,21.20
2018-10-09T14:10:23.004Z,21.40
2018-10-09T14:13:38.918Z,21.30
2018-10-09T14:16:51.521Z,21.30
2018-10-09T14:20:04.449Z,21.30
2018-10-09T14:23:16.673Z,21.30
2018-10-09T14:26:29.736Z,21.20
2018-10-09T14:29:41.408Z,21.00
2018-10-09T14:32:52.762Z,21.00
2018-10-09T14:36:03.982Z,21.00
2018-10-09T14:39:15.247Z,21.00
2018-10-09T14:42:26.647Z,20.80
2018-10-09T14:45:39.321Z,20.80
2018-10-09T14:48:50.937Z,20.80
2018-10-09T14:52:02.808Z,20.80
2018-10-09T14:55:14.033Z,20.80
2018-10-09T14:58:25.992Z,20.80
2018-10-09T15:01:37.841Z,20.80
2018-10-09T15:04:49.711Z,20.80
2018-10-09T15:08:01.290Z,20.70
2018-10-09T15:11:13.177Z,20.70
2018-10-09T15:14:24.910Z,20.60
2018-10-09T15:17:36.821Z,20.50
2018-10-09T15:20:48.647Z,20.40
2018-10-09T15:24:00.309Z,20.30
2018-10-09T15:27:12.232Z,20.30
2018-10-09T15:30:23.702Z,20.20
2018-10-09T15:33:34.798Z,20.10
2018-10-09T15:36:46.132Z,20.10
2018-10-09T15:39:57.341Z,20.10
2018-10-09T15:43:08.726Z,20.00
2018-10-09T15:46:19.968Z,20.00
2018-10-09T15:49:31.873Z,19.90
2018-10-09T15:52:44.042Z,19.70
2018-10-09T15:55:55.371Z,19.70
2018-10-09T15:59:07.069Z,19.60
2018-10-09T16:02:18.521Z,19.50
2018-10-09T16:05:29.891Z,19.50
2018-10-09T16:08:41.557Z,19.40
2018-10-09T16:11:52.941Z,19.30
2018-10-09T16:15:05.134Z,19.10
2018-10-09T16:18:16.576Z,19.00
2018-10-09T16:21:28.464Z,18.70
2018-10-09T16:24:40.439Z,18.60
2018-10-09T16:27:51.861Z,18.60
2018-10-09T16:31:03.921Z,18.40
2018-10-09T16:34:15.695Z,18.30
2018-10-09T16:37:27.389Z,18.10
2018-10-09T16:40:38.686Z,18.10
2018-10-09T16:43:50.647Z,18.00
2018-10-09T16:47:05.357Z,17.70
2018-10-09T16:50:17.211Z,17.50
2018-10-09T16:53:28.433Z,17.50
2018-10-09T16:56:40.007Z,17.40
2018-10-09T16:59:51.985Z,17.30
2018-10-09T17:03:03.067Z,17.20
2018-10-09T17:06:14.921Z,17.00
2018-10-09T17:09:26.430Z,16.90
2018-10-09T17:12:38.695Z,16.70
2018-10-09T17:15:50.344Z,16.60
2018-10-09T17:19:04.789Z,16.50
2018-10-09T17:22:16.792Z,16.40
2018-10-09T17:25:28.506Z,16.30
2018-10-09T17:28:39.965Z,16.20
2018-10-09T17:31:51.406Z,16.10
2018-10-09T17:35:02.797Z,15.80
2018-10-09T17:38:14.337Z,15.90
2018-10-09T17:41:26.204Z,15.70
2018-10-09T17:44:37.926Z,15.70
2018-10-09T17:47:49.288Z,15.60
2018-10-09T17:51:00.943Z,15.40
2018-10-09T17:54:12.248Z,15.40
2018-10-09T17:57:23.793Z,15.50
2018-10-09T18:00:34.812Z,15.20
2018-10-09T18:03:46.374Z,15.10
2018-10-09T18:06:57.515Z,15.00
2018-10-09T18:10:08.881Z,14.80
2018-10-09T18:13:20.913Z,14.80
2018-10-09T18:16:32.486Z,14.60
2018-10-09T18:19:43.805Z,14.50
2018-10-09T18:22:54.880Z,14.50
2018-10-09T18:26:06.010Z,14.50
2018-10-09T18:29:17.852Z,14.50
2018-10-09T18:32:29.460Z,14.40
2018-10-09T18:35:41.193Z,14.30
2018-10-09T18:38:53.046Z,14.10
2018-10-09T18:42:05.068Z,14.10
2018-10-09T18:45:17.493Z,13.90
2018-10-09T18:48:29.493Z,13.80
2018-10-09T18:51:41.082Z,13.80
2018-10-09T18:54:52.794Z,13.80
2018-10-09T18:58:04.791Z,13.70
2018-10-09T19:01:16.490Z,13.60
2018-10-09T19:04:27.603Z,13.50
2018-10-09T19:07:40.230Z,13.30
2018-10-09T19:10:51.331Z,13.30
2018-10-09T19:14:03.127Z,13.10
2018-10-09T19:17:18.062Z,13.20
2018-10-09T19:20:29.583Z,13.20
2018-10-09T19:23:40.966Z,13.00
2018-10-09T19:26:52.190Z,13.00
2018-10-09T19:30:03.704Z,13.00
2018-10-09T19:33:15.246Z,12.90
2018-10-09T19:36:27.132Z,12.90
2018-10-09T19:39:38.760Z,12.90
2018-10-09T19:42:50.656Z,13.00
2018-10-09T19:46:02.869Z,13.10
2018-10-09T19:49:14.206Z,13.20
2018-10-09T19:52:25.618Z,13.30
2018-10-09T19:55:36.954Z,13.50
2018-10-09T19:58:48.061Z,13.50
2018-10-09T20:01:59.806Z,13.50
2018-10-09T20:05:11.071Z,13.50
2018-10-09T20:08:22.793Z,13.50
2018-10-09T20:11:34.189Z,13.50
2018-10-09T20:14:45.700Z,13.50
2018-10-09T20:17:57.568Z,13.50
2018-10-09T20:21:10.910Z,13.50
2018-10-09T20:24:22.843Z,13.40
2018-10-09T20:27:34.678Z,13.40
2018-10-09T20:30:46.719Z,13.30
2018-10-09T20:33:57.862Z,13.30
2018-10-09T20:37:09.779Z,13.30
2018-10-09T20:40:21.691Z,13.30
2018-10-09T20:43:33.430Z,13.20
2018-10-09T20:46:45.169Z,13.20
2018-10-09T20:49:56.429Z,13.10
2018-10-09T20:53:08.072Z,13.10
2018-10-09T20:56:20.063Z,13.00
2018-10-09T20:59:31.285Z,13.00
2018-10-09T21:02:43.462Z,13.00
2018-10-09T21:05:57.272Z,12.90
2018-10-09T21:09:09.379Z,12.90
2018-10-09T21:12:21.311Z,12.90
2018-10-09T21:15:32.457Z,12.90
2018-10-09T21:18:43.963Z,12.90
2018-10-09T21:21:55.845Z,12.90
2018-10-09T21:25:07.614Z,12.80
2018-10-09T21:28:19.068Z,12.80
2018-10-09T21:31:30.783Z,12.70
2018-10-09T21:34:42.627Z,12.60
2018-10-09T21:37:54.252Z,12.60
2018-10-09T21:41:06.089Z,12.60
2018-10-09T21:44:17.134Z,12.60
2018-10-09T21:47:28.572Z,12.50
2018-10-09T21:50:39.872Z,12.50
2018-10-09T21:53:51.806Z,12.40
2018-10-09T21:57:03.300Z,12.40
2018-10-09T22:00:14.961Z,12.40
2018-10-09T22:03:26.514Z,12.30
2018-10-09T22:06:37.762Z,12.20
2018-10-09T22:09:49.018Z,12.20
2018-10-09T22:13:00.207Z,12.20
2018-10-09T22:16:11.854Z,12.20
2018-10-09T22:19:23.690Z,12.20
2018-10-09T22:22:35.969Z,12.20
2018-10-09T22:25:47.666Z,12.10
2018-10-09T22:28:58.954Z,12.10
2018-10-09T22:32:10.804Z,12.10
2018-10-09T22:35:22.202Z,12.10
2018-10-09T22:38:33.252Z,12.10
2018-10-09T22:41:45.279Z,12.00
2018-10-09T22:44:56.822Z,12.00
2018-10-09T22:48:08.818Z,11.90
2018-10-09T22:51:20.689Z,11.90
2018-10-09T22:54:32.023Z,11.90
2018-10-09T22:57:43.088Z,11.90
2018-10-09T23:00:55.903Z,11.80
2018-10-09T23:04:08.483Z,11.80
2018-10-09T23:07:20.180Z,11.80
2018-10-09T23:10:31.362Z,11.80
2018-10-09T23:13:43.365Z,11.80
2018-10-09T23:16:55.442Z,11.80
2018-10-09T23:20:07.533Z,11.70
2018-10-09T23:23:19.097Z,11.70
2018-10-09T23:26:30.742Z,11.60
2018-10-09T23:29:42.910Z,11.60
2018-10-09T23:32:54.044Z,11.60
2018-10-09T23:36:06.085Z,11.60
2018-10-09T23:39:17.318Z,11.60
2018-10-09T23:42:28.694Z,11.60
2018-10-09T23:45:40.130Z,11.50
2018-10-09T23:48:51.726Z,11.40
2018-10-09T23:52:03.249Z,11.30
2018-10-09T23:55:14.607Z,11.30
2018-10-09T23:58:26.563Z,11.20
